Time;durP1;ratioP1;P1;durP2;ratioP2;P2;SDS_P1;SDS_P2;PMS_P1;PMS_P2;Temp;Humidity;BMP_temperature;BMP_pressure;BME280_temperature;BME280_humidity;BME280_pressure;Samples;Min_cycle;Max_cycle;Signal;HPM_P1;HPM_P2
2022/06/11 00:01:52;;;;;;;;;;;16.70;99.90;;;;;;5073336;28;19935;-68
2022/06/11 00:04:19;;;;;;;;;;;16.70;99.90;;;;;;5082127;28;20059;-68
2022/06/11 00:06:48;;;;;;;;;;;16.70;99.90;;;;;;5075405;28;20011;-67
2022/06/11 00:09:16;;;;;;;;;;;16.70;99.90;;;;;;5077846;28;19975;-68
2022/06/11 00:11:43;;;;;;;;;;;16.70;99.90;;;;;;5073236;28;19993;-67
2022/06/11 00:14:10;;;;;;;;;;;16.70;99.90;;;;;;5077037;28;20011;-67
2022/06/11 00:16:37;;;;;;;;;;;16.70;99.90;;;;;;5080921;28;19979;-68
2022/06/11 00:19:06;;;;;;;;;;;16.70;99.90;;;;;;5083900;28;19975;-68
2022/06/11 00:21:34;;;;;;;;;;;16.70;99.90;;;;;;5079130;28;19978;-68
2022/06/11 00:24:01;;;;;;;;;;;16.70;99.90;;;;;;5078293;28;20023;-68
2022/06/11 00:26:28;;;;;;;;;;;16.70;99.90;;;;;;5079654;28;20019;-68
2022/06/11 00:28:55;;;;;;;;;;;16.70;99.90;;;;;;5076147;28;19943;-68
2022/06/11 00:31:21;;;;;;;;;;;16.70;99.90;;;;;;5076468;28;19931;-68
2022/06/11 00:33:48;;;;;;;;;;;16.70;99.90;;;;;;5078796;28;19955;-68
2022/06/11 00:36:18;;;;;;;;;;;16.60;99.90;;;;;;5078012;28;20055;-68
2022/06/11 00:38:45;;;;;;;;;;;16.60;99.90;;;;;;5077187;28;19924;-68
2022/06/11 00:41:12;;;;;;;;;;;16.60;99.90;;;;;;5079051;28;19924;-68
2022/06/11 00:43:39;;;;;;;;;;;16.60;99.90;;;;;;5079154;28;20010;-68
2022/06/11 00:46:20;;;;;;;;;;;16.70;99.90;;;;;;5087277;28;20007;-68
2022/06/11 00:48:48;;;;;;;;;;;16.70;99.90;;;;;;5081545;28;20426;-68
2022/06/11 00:51:18;;;;;;;;;;;16.70;99.90;;;;;;5084854;28;19924;-68
2022/06/11 00:53:47;;;;;;;;;;;16.70;99.90;;;;;;5080334;28;20020;-67
2022/06/11 00:56:17;;;;;;;;;;;16.60;99.90;;;;;;5084225;28;20019;-68
2022/06/11 00:58:46;;;;;;;;;;;16.60;99.90;;;;;;5082317;28;20011;-68
2022/06/11 01:01:13;;;;;;;;;;;16.60;99.90;;;;;;5090287;28;19928;-68
2022/06/11 01:03:41;;;;;;;;;;;16.50;99.90;;;;;;5082486;28;19924;-68
2022/06/11 01:06:14;;;;;;;;;;;16.50;99.90;;;;;;5085492;28;20493;-68
2022/06/11 01:08:53;;;;;;;;;;;16.50;99.90;;;;;;5086554;28;19971;-67
2022/06/11 01:11:44;;;;;;;;;;;16.40;99.90;;;;;;5085686;28;19990;-67
2022/06/11 01:14:17;;;;;;;;;;;16.40;99.90;;;;;;5082808;28;20027;-68
2022/06/11 01:16:52;;;;;;;;;;;16.40;99.90;;;;;;5087120;28;20190;-68
2022/06/11 01:19:32;;;;;;;;;;;16.40;99.90;;;;;;5082524;28;20019;-67
2022/06/11 01:22:08;;;;;;;;;;;16.50;99.90;;;;;;5083882;28;19985;-67
2022/06/11 01:24:44;;;;;;;;;;;16.50;99.90;;;;;;5079246;28;19932;-68
2022/06/11 01:27:27;;;;;;;;;;;16.50;99.90;;;;;;5084762;28;20457;-67
2022/06/11 01:29:57;;;;;;;;;;;16.60;99.90;;;;;;5084757;28;20038;-67
2022/06/11 01:32:29;;;;;;;;;;;16.60;99.90;;;;;;5081955;28;19952;-68
2022/06/11 01:35:06;;;;;;;;;;;16.70;99.90;;;;;;5084411;28;19978;-68
2022/06/11 01:37:35;;;;;;;;;;;16.70;99.90;;;;;;5079764;28;20387;-68
2022/06/11 01:40:05;;;;;;;;;;;16.70;99.90;;;;;;5086569;28;19931;-67
2022/06/11 01:42:34;;;;;;;;;;;16.70;99.90;;;;;;5081550;28;19954;-68
2022/06/11 01:45:05;;;;;;;;;;;16.70;99.90;;;;;;5089170;28;19924;-68
2022/06/11 01:47:32;;;;;;;;;;;16.70;99.90;;;;;;5081407;28;19932;-68
2022/06/11 01:49:59;;;;;;;;;;;16.70;99.90;;;;;;5083931;28;19964;-68
2022/06/11 01:52:33;;;;;;;;;;;16.70;99.90;;;;;;5084197;28;19971;-67
2022/06/11 01:55:03;;;;;;;;;;;16.80;99.90;;;;;;5083374;28;20361;-68
2022/06/11 01:57:38;;;;;;;;;;;16.80;99.90;;;;;;5084270;28;19928;-68
2022/06/11 02:00:19;;;;;;;;;;;16.90;99.90;;;;;;5074711;28;20019;-68
2022/06/11 02:02:55;;;;;;;;;;;16.90;99.90;;;;;;5080299;28;19987;-68
2022/06/11 02:05:25;;;;;;;;;;;16.90;99.90;;;;;;5089163;28;19932;-68
2022/06/11 02:07:58;;;;;;;;;;;17.00;99.90;;;;;;5084659;28;20586;-67
2022/06/11 02:10:29;;;;;;;;;;;17.00;99.90;;;;;;5086424;28;20348;-68
2022/06/11 02:12:58;;;;;;;;;;;17.00;99.90;;;;;;5078862;28;20047;-68
2022/06/11 02:15:28;;;;;;;;;;;17.00;99.90;;;;;;5077347;28;19942;-69
2022/06/11 02:17:56;;;;;;;;;;;17.00;99.90;;;;;;5087742;28;19963;-68
2022/06/11 02:20:25;;;;;;;;;;;17.00;99.90;;;;;;5074733;28;19972;-68
2022/06/11 02:22:54;;;;;;;;;;;17.00;99.90;;;;;;5088169;28;20014;-68
2022/06/11 02:25:24;;;;;;;;;;;17.00;99.90;;;;;;5086616;28;19928;-68
2022/06/11 02:27:51;;;;;;;;;;;17.00;99.90;;;;;;5079800;28;20383;-68
2022/06/11 02:30:24;;;;;;;;;;;17.00;99.90;;;;;;5088493;28;20388;-67
2022/06/11 02:32:52;;;;;;;;;;;17.00;99.90;;;;;;5085321;28;19970;-67
2022/06/11 02:35:26;;;;;;;;;;;17.10;99.90;;;;;;5089300;28;20340;-68
2022/06/11 02:37:53;;;;;;;;;;;17.10;99.90;;;;;;5085137;28;20450;-68
2022/06/11 02:40:22;;;;;;;;;;;17.10;99.90;;;;;;5082684;28;19928;-68
2022/06/11 02:42:48;;;;;;;;;;;17.00;99.90;;;;;;5074792;28;19939;-68
2022/06/11 02:45:16;;;;;;;;;;;17.00;99.90;;;;;;5073476;28;20427;-68
2022/06/11 02:47:43;;;;;;;;;;;17.00;99.90;;;;;;5085745;28;19925;-68
2022/06/11 02:50:16;;;;;;;;;;;17.10;99.90;;;;;;5087627;28;20394;-68
2022/06/11 02:52:43;;;;;;;;;;;17.00;99.90;;;;;;5080408;28;20023;-68
2022/06/11 02:55:10;;;;;;;;;;;17.00;99.90;;;;;;5090803;28;19928;-68
2022/06/11 02:57:38;;;;;;;;;;;17.00;99.90;;;;;;5089429;28;19927;-67
2022/06/11 03:00:07;;;;;;;;;;;17.00;99.90;;;;;;5084821;28;19929;-67
2022/06/11 03:02:33;;;;;;;;;;;17.00;99.90;;;;;;5077337;28;20357;-68
2022/06/11 03:05:00;;;;;;;;;;;16.90;99.90;;;;;;5090835;28;20012;-67
2022/06/11 03:07:28;;;;;;;;;;;16.90;99.90;;;;;;5083299;28;19975;-67
2022/06/11 03:09:55;;;;;;;;;;;16.90;99.90;;;;;;5089692;28;19999;-68
2022/06/11 03:12:21;;;;;;;;;;;16.90;99.90;;;;;;5075776;28;20585;-68
2022/06/11 03:14:48;;;;;;;;;;;16.90;99.90;;;;;;5080509;28;19932;-69
2022/06/11 03:17:16;;;;;;;;;;;16.90;99.90;;;;;;5076361;28;20298;-68
2022/06/11 03:19:43;;;;;;;;;;;16.90;99.90;;;;;;5087723;28;19924;-68
2022/06/11 03:22:10;;;;;;;;;;;16.90;99.90;;;;;;5073266;28;20038;-68
2022/06/11 03:24:38;;;;;;;;;;;16.90;99.90;;;;;;5088481;28;19925;-68
2022/06/11 03:27:05;;;;;;;;;;;16.90;99.90;;;;;;5092489;28;19963;-68
2022/06/11 03:29:31;;;;;;;;;;;16.90;99.90;;;;;;5079886;28;19963;-68
2022/06/11 03:31:58;;;;;;;;;;;16.90;99.90;;;;;;5073206;28;19925;-68
2022/06/11 03:34:25;;;;;;;;;;;16.90;99.90;;;;;;5088396;28;19924;-68
2022/06/11 03:36:53;;;;;;;;;;;16.90;99.90;;;;;;5073837;28;20025;-67
2022/06/11 03:39:20;;;;;;;;;;;16.90;99.90;;;;;;5078752;28;20299;-68
2022/06/11 03:41:48;;;;;;;;;;;16.90;99.90;;;;;;5083416;28;19924;-69
2022/06/11 03:44:15;;;;;;;;;;;16.90;99.90;;;;;;5077986;28;20019;-68
2022/06/11 03:46:41;;;;;;;;;;;16.90;99.90;;;;;;5073422;28;20161;-68
2022/06/11 03:49:08;;;;;;;;;;;16.80;99.90;;;;;;5074906;28;19960;-69
2022/06/11 03:51:35;;;;;;;;;;;16.90;99.90;;;;;;5087027;28;19930;-68
2022/06/11 03:54:02;;;;;;;;;;;16.90;99.90;;;;;;5086612;28;19931;-68
2022/06/11 03:56:28;;;;;;;;;;;16.90;99.90;;;;;;5081902;28;20011;-68
2022/06/11 03:58:57;;;;;;;;;;;16.90;99.90;;;;;;5076116;28;19930;-68
2022/06/11 04:01:24;;;;;;;;;;;16.80;99.90;;;;;;5088355;28;19964;-68
2022/06/11 04:03:52;;;;;;;;;;;16.80;99.90;;;;;;5083835;28;19924;-68
2022/06/11 04:06:21;;;;;;;;;;;16.70;99.90;;;;;;5080426;28;19924;-68
2022/06/11 04:08:48;;;;;;;;;;;16.70;99.90;;;;;;5087907;28;20006;-68
2022/06/11 04:11:15;;;;;;;;;;;16.70;99.90;;;;;;5072762;28;20378;-68
2022/06/11 04:13:43;;;;;;;;;;;16.70;99.90;;;;;;5079718;28;20007;-68
2022/06/11 04:16:19;;;;;;;;;;;16.70;99.90;;;;;;5074475;28;20451;-69
2022/06/11 04:18:47;;;;;;;;;;;16.80;99.90;;;;;;5076797;28;20019;-67
2022/06/11 04:21:15;;;;;;;;;;;16.80;99.90;;;;;;5080226;28;20034;-68
2022/06/11 04:23:43;;;;;;;;;;;16.80;99.90;;;;;;5081396;28;20443;-68
2022/06/11 04:26:11;;;;;;;;;;;16.80;99.90;;;;;;5071406;28;19968;-68
2022/06/11 04:28:38;;;;;;;;;;;16.70;99.90;;;;;;5081878;28;19959;-68
2022/06/11 04:31:06;;;;;;;;;;;16.70;99.90;;;;;;5075797;28;20012;-68
2022/06/11 04:33:34;;;;;;;;;;;16.70;99.90;;;;;;5074602;28;19972;-68
2022/06/11 04:36:01;;;;;;;;;;;16.70;99.90;;;;;;5075318;28;19974;-68
2022/06/11 04:38:28;;;;;;;;;;;16.70;99.90;;;;;;5085514;28;19966;-68
2022/06/11 04:40:55;;;;;;;;;;;16.80;99.90;;;;;;5078350;28;19924;-68
2022/06/11 04:43:22;;;;;;;;;;;16.80;99.90;;;;;;5081416;28;19967;-68
2022/06/11 04:45:49;;;;;;;;;;;16.80;99.90;;;;;;5088954;28;20023;-68
2022/06/11 04:48:16;;;;;;;;;;;16.90;99.90;;;;;;5082839;28;19924;-68
2022/06/11 04:50:44;;;;;;;;;;;16.90;99.90;;;;;;5081216;28;19956;-68
2022/06/11 04:53:11;;;;;;;;;;;16.80;99.90;;;;;;5073277;28;20019;-68
2022/06/11 04:55:38;;;;;;;;;;;16.70;99.90;;;;;;5079541;28;19963;-68
2022/06/11 04:58:04;;;;;;;;;;;16.70;99.90;;;;;;5076563;28;20036;-68
2022/06/11 05:00:32;;;;;;;;;;;16.60;99.90;;;;;;5078608;28;20023;-68
2022/06/11 05:02:59;;;;;;;;;;;16.50;99.90;;;;;;5074752;28;19931;-69
2022/06/11 05:05:26;;;;;;;;;;;16.40;99.90;;;;;;5085693;28;20355;-68
2022/06/11 05:07:56;;;;;;;;;;;16.40;99.90;;;;;;5087599;28;20348;-68
2022/06/11 05:10:23;;;;;;;;;;;16.30;99.90;;;;;;5088458;28;19928;-67
2022/06/11 05:12:50;;;;;;;;;;;16.30;99.90;;;;;;5081952;28;19964;-67
2022/06/11 05:15:17;;;;;;;;;;;16.40;99.90;;;;;;5079550;28;19928;-66
2022/06/11 05:17:44;;;;;;;;;;;16.40;99.90;;;;;;5072481;28;19972;-67
2022/06/11 05:20:11;;;;;;;;;;;16.60;99.90;;;;;;5071963;28;20329;-68
2022/06/11 05:22:39;;;;;;;;;;;16.60;99.90;;;;;;5084042;28;19968;-69
2022/06/11 05:25:07;;;;;;;;;;;16.70;99.90;;;;;;5086373;28;20291;-68
2022/06/11 05:27:35;;;;;;;;;;;16.80;99.90;;;;;;5086685;28;20012;-68
2022/06/11 05:30:06;;;;;;;;;;;16.80;99.90;;;;;;5080480;28;20268;-67
2022/06/11 05:32:35;;;;;;;;;;;16.70;99.90;;;;;;5077932;28;19977;-66
2022/06/11 05:35:03;;;;;;;;;;;16.60;99.90;;;;;;5082314;28;20282;-68
2022/06/11 05:37:30;;;;;;;;;;;16.60;99.90;;;;;;5083688;28;19924;-68
2022/06/11 05:39:56;;;;;;;;;;;16.60;99.90;;;;;;5077994;28;20023;-68
2022/06/11 05:42:26;;;;;;;;;;;16.70;99.90;;;;;;5086740;28;19975;-69
2022/06/11 05:44:53;;;;;;;;;;;16.80;99.90;;;;;;5074889;28;20369;-68
2022/06/11 05:47:22;;;;;;;;;;;16.90;99.90;;;;;;5084082;28;20404;-68
2022/06/11 05:49:51;;;;;;;;;;;16.90;99.90;;;;;;5080198;28;19931;-68
2022/06/11 05:52:21;;;;;;;;;;;17.00;99.90;;;;;;5081250;28;19924;-68
2022/06/11 05:54:48;;;;;;;;;;;17.30;99.90;;;;;;5086120;28;20387;-69
2022/06/11 05:57:17;;;;;;;;;;;17.40;99.90;;;;;;5078193;28;20427;-69
2022/06/11 05:59:47;;;;;;;;;;;17.50;99.90;;;;;;5089716;28;19967;-69
2022/06/11 06:02:15;;;;;;;;;;;17.50;99.90;;;;;;5077340;28;20006;-68
2022/06/11 06:04:41;;;;;;;;;;;17.40;99.90;;;;;;5081248;28;19924;-68
2022/06/11 06:07:09;;;;;;;;;;;17.40;99.90;;;;;;5078595;28;20121;-68
2022/06/11 06:09:35;;;;;;;;;;;17.40;99.90;;;;;;5087237;28;19932;-68
2022/06/11 06:12:03;;;;;;;;;;;17.40;99.90;;;;;;5086992;28;19931;-69
2022/06/11 06:14:29;;;;;;;;;;;17.40;99.90;;;;;;5081056;28;19935;-68
2022/06/11 06:16:57;;;;;;;;;;;17.40;99.90;;;;;;5079517;28;20003;-69
2022/06/11 06:19:24;;;;;;;;;;;17.50;99.90;;;;;;5081222;28;20426;-67
2022/06/11 06:21:51;;;;;;;;;;;17.40;99.90;;;;;;5075217;28;20254;-67
2022/06/11 06:24:18;;;;;;;;;;;17.40;99.90;;;;;;5073947;28;19924;-66
2022/06/11 06:26:44;;;;;;;;;;;17.40;99.90;;;;;;5076040;28;19963;-67
2022/06/11 06:29:11;;;;;;;;;;;17.40;99.90;;;;;;5077946;28;20026;-67
2022/06/11 06:31:38;;;;;;;;;;;17.50;99.90;;;;;;5080544;28;19975;-67
2022/06/11 06:34:06;;;;;;;;;;;17.50;99.90;;;;;;5085201;28;20408;-68
2022/06/11 06:36:34;;;;;;;;;;;17.60;99.90;;;;;;5079497;28;19924;-68
2022/06/11 06:39:00;;;;;;;;;;;17.80;99.90;;;;;;5077694;28;19931;-68
2022/06/11 06:41:27;;;;;;;;;;;17.90;99.80;;;;;;5078335;28;19928;-67
2022/06/11 06:43:54;;;;;;;;;;;17.90;99.40;;;;;;5084727;28;20562;-67
2022/06/11 06:46:21;;;;;;;;;;;17.80;99.70;;;;;;5082552;28;19963;-68
2022/06/11 06:48:48;;;;;;;;;;;17.80;99.90;;;;;;5089410;28;19931;-69
2022/06/11 06:51:18;;;;;;;;;;;17.80;99.90;;;;;;5090211;28;19973;-68
2022/06/11 06:53:44;;;;;;;;;;;18.00;99.90;;;;;;5084942;28;19981;-68
2022/06/11 06:56:11;;;;;;;;;;;18.30;99.90;;;;;;5079972;28;19924;-69
2022/06/11 06:58:38;;;;;;;;;;;18.50;99.60;;;;;;5084770;28;19924;-67
2022/06/11 07:01:05;;;;;;;;;;;18.40;99.10;;;;;;5084439;28;20029;-68
2022/06/11 07:03:32;;;;;;;;;;;18.50;99.00;;;;;;5081112;28;20410;-69
2022/06/11 07:06:01;;;;;;;;;;;18.50;98.90;;;;;;5074064;28;19924;-69
2022/06/11 07:08:29;;;;;;;;;;;18.40;98.20;;;;;;5080314;28;19965;-68
2022/06/11 07:10:56;;;;;;;;;;;18.40;97.70;;;;;;5086392;28;20057;-68
2022/06/11 07:13:23;;;;;;;;;;;18.60;97.30;;;;;;5089346;28;20002;-68
2022/06/11 07:15:51;;;;;;;;;;;19.00;96.60;;;;;;5080120;28;20353;-67
2022/06/11 07:18:19;;;;;;;;;;;19.90;96.30;;;;;;5084223;28;20022;-68
2022/06/11 07:20:47;;;;;;;;;;;20.70;93.40;;;;;;5087077;28;19932;-68
2022/06/11 07:23:16;;;;;;;;;;;20.70;92.50;;;;;;5076550;28;19928;-67
2022/06/11 07:25:46;;;;;;;;;;;21.30;90.80;;;;;;5074129;28;19967;-68
2022/06/11 07:28:16;;;;;;;;;;;22.30;85.70;;;;;;5084754;28;19924;-69
2022/06/11 07:30:44;;;;;;;;;;;21.90;81.90;;;;;;5081350;28;19924;-69
2022/06/11 07:33:12;;;;;;;;;;;21.20;81.80;;;;;;5074580;28;19931;-67
2022/06/11 07:35:43;;;;;;;;;;;21.00;81.70;;;;;;5072248;28;19964;-67
2022/06/11 07:38:11;;;;;;;;;;;21.00;81.00;;;;;;5084577;28;19924;-67
2022/06/11 07:40:38;;;;;;;;;;;20.80;81.20;;;;;;5075745;28;20290;-68
2022/06/11 07:43:07;;;;;;;;;;;21.50;82.60;;;;;;5081809;28;20014;-68
2022/06/11 07:45:34;;;;;;;;;;;24.70;72.80;;;;;;5072422;28;20395;-69
2022/06/11 07:48:01;;;;;;;;;;;26.70;57.30;;;;;;5070998;28;20299;-70
2022/06/11 07:50:30;;;;;;;;;;;28.00;45.50;;;;;;5067151;28;20395;-69
2022/06/11 07:52:57;;;;;;;;;;;27.00;38.70;;;;;;5081591;28;19924;-69
2022/06/11 07:55:24;;;;;;;;;;;25.40;40.50;;;;;;5073159;28;20040;-69
2022/06/11 07:57:51;;;;;;;;;;;24.30;45.40;;;;;;5077278;28;20001;-70
2022/06/11 08:00:21;;;;;;;;;;;24.10;45.50;;;;;;5078101;28;20031;-69
2022/06/11 08:02:47;;;;;;;;;;;23.80;45.20;;;;;;5074367;28;20383;-69
2022/06/11 08:05:14;;;;;;;;;;;23.00;47.40;;;;;;5068781;28;20020;-67
2022/06/11 08:07:41;;;;;;;;;;;22.40;50.10;;;;;;5081576;28;19936;-68
2022/06/11 08:10:09;;;;;;;;;;;22.50;50.20;;;;;;5082261;28;19924;-68
2022/06/11 08:12:35;;;;;;;;;;;22.90;48.30;;;;;;5071448;28;19928;-68
2022/06/11 08:15:03;;;;;;;;;;;24.40;44.50;;;;;;5076150;28;19963;-68
2022/06/11 08:17:32;;;;;;;;;;;26.10;40.50;;;;;;5078373;28;19947;-69
2022/06/11 08:19:59;;;;;;;;;;;26.10;36.50;;;;;;5080329;28;20019;-68
2022/06/11 08:22:25;;;;;;;;;;;25.10;37.90;;;;;;5078064;28;20082;-68
2022/06/11 08:24:52;;;;;;;;;;;24.20;39.30;;;;;;5075477;28;20000;-69
2022/06/11 08:27:19;;;;;;;;;;;25.00;39.20;;;;;;5079165;28;20015;-68
2022/06/11 08:29:46;;;;;;;;;;;24.70;39.00;;;;;;5069067;28;19928;-69
2022/06/11 08:32:13;;;;;;;;;;;24.70;38.10;;;;;;5077551;28;20019;-68
2022/06/11 08:34:42;;;;;;;;;;;24.80;37.50;;;;;;5080163;28;20316;-67
2022/06/11 08:37:09;;;;;;;;;;;25.70;36.50;;;;;;5076246;28;20126;-69
2022/06/11 08:39:36;;;;;;;;;;;25.70;35.40;;;;;;5073357;28;19977;-69
2022/06/11 08:42:04;;;;;;;;;;;25.40;36.10;;;;;;5080786;28;19928;-69
2022/06/11 08:44:33;;;;;;;;;;;25.00;35.50;;;;;;5072149;28;19983;-69
2022/06/11 08:47:02;;;;;;;;;;;24.60;35.30;;;;;;5082818;28;20353;-68
2022/06/11 08:49:33;;;;;;;;;;;25.80;35.60;;;;;;5077987;28;19929;-68
2022/06/11 08:52:05;;;;;;;;;;;25.80;33.00;;;;;;5077170;28;19928;-69
2022/06/11 08:54:32;;;;;;;;;;;26.00;34.50;;;;;;5073822;28;19928;-68
2022/06/11 08:57:14;;;;;;;;;;;27.60;30.30;;;;;;5069598;28;19963;-69
2022/06/11 08:59:47;;;;;;;;;;;28.20;28.10;;;;;;5070527;28;20478;-69
2022/06/11 09:02:24;;;;;;;;;;;29.00;26.20;;;;;;5080085;28;20022;-69
2022/06/11 09:04:58;;;;;;;;;;;28.70;25.70;;;;;;5081550;28;19931;-69
2022/06/11 09:07:42;;;;;;;;;;;28.40;24.10;;;;;;5079061;28;20007;-69
2022/06/11 09:10:20;;;;;;;;;;;27.60;24.90;;;;;;5079099;28;19930;-68
2022/06/11 09:12:55;;;;;;;;;;;28.20;24.80;;;;;;5073736;28;20371;-69
2022/06/11 09:15:34;;;;;;;;;;;28.60;23.20;;;;;;5071453;28;19931;-69
2022/06/11 09:18:19;;;;;;;;;;;28.40;24.00;;;;;;5083962;28;19935;-69
2022/06/11 09:20:55;;;;;;;;;;;28.40;22.50;;;;;;5075945;28;19963;-69
2022/06/11 09:23:30;;;;;;;;;;;27.20;23.90;;;;;;5085425;28;19936;-69
2022/06/11 09:26:08;;;;;;;;;;;26.90;24.20;;;;;;5079325;28;20304;-68
2022/06/11 09:28:39;;;;;;;;;;;26.70;23.80;;;;;;5083974;28;19925;-68
2022/06/11 09:31:10;;;;;;;;;;;26.10;24.20;;;;;;5072132;28;19924;-68
2022/06/11 09:33:40;;;;;;;;;;;26.50;23.60;;;;;;5087121;28;20334;-68
2022/06/11 09:36:08;;;;;;;;;;;26.10;24.50;;;;;;5073366;28;20465;-68
2022/06/11 09:38:38;;;;;;;;;;;25.60;25.00;;;;;;5080913;28;19989;-68
2022/06/11 09:41:12;;;;;;;;;;;25.90;26.80;;;;;;5078871;28;20356;-69
2022/06/11 09:43:42;;;;;;;;;;;25.90;25.90;;;;;;5086781;28;20023;-68
2022/06/11 09:46:13;;;;;;;;;;;25.90;27.30;;;;;;5084527;28;19924;-69
2022/06/11 09:48:46;;;;;;;;;;;26.80;26.20;;;;;;5080932;28;20328;-68
2022/06/11 09:51:19;;;;;;;;;;;27.20;24.70;;;;;;5074531;28;19969;-69
2022/06/11 09:53:55;;;;;;;;;;;27.50;24.20;;;;;;5072358;28;19952;-69
2022/06/11 09:56:29;;;;;;;;;;;28.40;23.60;;;;;;5071899;28;20019;-68
2022/06/11 09:59:01;;;;;;;;;;;28.50;22.60;;;;;;5085766;28;19963;-68
2022/06/11 10:01:31;;;;;;;;;;;28.80;22.20;;;;;;5073189;28;19959;-67
2022/06/11 10:04:02;;;;;;;;;;;29.00;21.00;;;;;;5082615;28;19959;-68
2022/06/11 10:06:32;;;;;;;;;;;29.30;21.40;;;;;;5084672;28;19928;-69
2022/06/11 10:08:59;;;;;;;;;;;29.60;21.20;;;;;;5079690;28;20059;-69
2022/06/11 10:11:30;;;;;;;;;;;28.90;20.40;;;;;;5076643;28;20039;-69
2022/06/11 10:14:28;;;;;;;;;;;27.00;23.40;;;;;;5076739;28;20006;-69
2022/06/11 10:16:48;;;;;;;;;;;26.30;24.60;;;;;;5081583;28;20027;-69
2022/06/11 10:19:19;;;;;;;;;;;25.60;26.40;;;;;;5082049;28;19928;-69
2022/06/11 10:21:49;;;;;;;;;;;25.20;26.50;;;;;;5074440;28;19936;-68
2022/06/11 10:24:18;;;;;;;;;;;24.70;26.90;;;;;;5082754;28;19924;-69
2022/06/11 10:26:48;;;;;;;;;;;24.10;28.60;;;;;;5072441;28;20395;-69
2022/06/11 10:29:20;;;;;;;;;;;23.90;29.30;;;;;;5077602;28;20383;-69
2022/06/11 10:31:48;;;;;;;;;;;23.70;30.00;;;;;;5079561;28;20442;-69
2022/06/11 10:34:18;;;;;;;;;;;23.80;31.10;;;;;;5084689;28;19978;-68
2022/06/11 10:36:47;;;;;;;;;;;23.70;30.20;;;;;;5076098;28;20030;-68
2022/06/11 10:39:19;;;;;;;;;;;23.60;30.00;;;;;;5081627;28;20080;-69
2022/06/11 10:41:52;;;;;;;;;;;23.60;30.30;;;;;;5079214;28;20023;-68
2022/06/11 10:44:23;;;;;;;;;;;24.00;29.80;;;;;;5078500;28;20086;-69
2022/06/11 10:46:52;;;;;;;;;;;23.70;29.10;;;;;;5076092;28;20350;-69
2022/06/11 10:49:20;;;;;;;;;;;23.70;29.10;;;;;;5085930;28;20023;-68
2022/06/11 10:51:49;;;;;;;;;;;23.80;28.30;;;;;;5080908;28;20371;-67
2022/06/11 10:54:20;;;;;;;;;;;23.60;29.20;;;;;;5088761;28;20318;-68
2022/06/11 10:56:50;;;;;;;;;;;23.30;29.20;;;;;;5070382;28;20019;-68
2022/06/11 10:59:21;;;;;;;;;;;23.70;30.90;;;;;;5083775;28;20448;-68
2022/06/11 11:01:50;;;;;;;;;;;23.80;29.30;;;;;;5072549;28;20021;-69
2022/06/11 11:04:27;;;;;;;;;;;23.90;30.30;;;;;;5072431;28;19964;-68
2022/06/11 11:07:07;;;;;;;;;;;23.60;29.80;;;;;;5082345;28;19924;-68
2022/06/11 11:09:33;;;;;;;;;;;23.60;30.90;;;;;;5071076;28;19925;-68
2022/06/11 11:12:04;;;;;;;;;;;23.90;31.30;;;;;;5085716;28;19925;-69
2022/06/11 11:14:33;;;;;;;;;;;24.20;30.30;;;;;;5081917;28;20359;-69
2022/06/11 11:17:01;;;;;;;;;;;24.20;30.80;;;;;;5080631;28;20353;-69
2022/06/11 11:19:29;;;;;;;;;;;24.30;31.30;;;;;;5070800;28;19960;-69
2022/06/11 11:21:58;;;;;;;;;;;24.40;31.30;;;;;;5081997;28;19928;-66
2022/06/11 11:24:27;;;;;;;;;;;24.50;30.50;;;;;;5083650;28;19924;-67
2022/06/11 11:26:56;;;;;;;;;;;24.70;30.80;;;;;;5076905;28;19993;-67
2022/06/11 11:29:26;;;;;;;;;;;24.40;30.10;;;;;;5078851;28;20006;-67
2022/06/11 11:31:54;;;;;;;;;;;24.00;31.30;;;;;;5077133;28;19925;-66
2022/06/11 11:34:24;;;;;;;;;;;24.30;31.90;;;;;;5084555;28;19924;-68
2022/06/11 11:36:56;;;;;;;;;;;24.50;30.10;;;;;;5088296;28;19931;-68
2022/06/11 11:39:25;;;;;;;;;;;24.40;30.90;;;;;;5093849;28;19930;-68
2022/06/11 11:41:54;;;;;;;;;;;24.10;30.50;;;;;;5087453;28;19970;-67
2022/06/11 11:44:23;;;;;;;;;;;24.00;30.50;;;;;;5083276;28;20395;-67
2022/06/11 11:46:53;;;;;;;;;;;23.80;31.30;;;;;;5077606;28;20031;-68
2022/06/11 11:49:23;;;;;;;;;;;24.00;31.70;;;;;;5078581;28;20336;-68
2022/06/11 11:51:50;;;;;;;;;;;24.00;31.10;;;;;;5079012;28;19956;-68
2022/06/11 11:54:18;;;;;;;;;;;24.00;31.70;;;;;;5076794;28;20018;-67
2022/06/11 11:56:47;;;;;;;;;;;24.00;32.00;;;;;;5079522;28;20399;-68
2022/06/11 11:59:15;;;;;;;;;;;24.10;31.70;;;;;;5072658;28;19970;-67
2022/06/11 12:01:43;;;;;;;;;;;24.50;31.50;;;;;;5074068;28;19924;-68
2022/06/11 12:04:16;;;;;;;;;;;24.50;32.30;;;;;;5073975;28;19965;-68
2022/06/11 12:06:44;;;;;;;;;;;24.30;32.10;;;;;;5070861;28;19939;-68
2022/06/11 12:09:21;;;;;;;;;;;24.40;32.30;;;;;;5075377;28;19981;-67
2022/06/11 12:11:56;;;;;;;;;;;24.40;32.50;;;;;;5074964;28;20015;-67
2022/06/11 12:14:28;;;;;;;;;;;24.40;31.20;;;;;;5084263;28;19951;-67
2022/06/11 12:16:56;;;;;;;;;;;24.70;31.40;;;;;;5076843;28;20402;-67
2022/06/11 12:19:28;;;;;;;;;;;24.90;31.30;;;;;;5082432;28;19931;-67
2022/06/11 12:22:03;;;;;;;;;;;24.50;31.40;;;;;;5082520;28;20391;-67
2022/06/11 12:24:34;;;;;;;;;;;24.40;31.90;;;;;;5081293;28;20016;-67
2022/06/11 12:27:01;;;;;;;;;;;24.30;32.10;;;;;;5084779;28;19983;-67
2022/06/11 12:29:30;;;;;;;;;;;24.10;32.80;;;;;;5081123;28;20294;-67
2022/06/11 12:32:12;;;;;;;;;;;24.20;33.30;;;;;;5083117;28;19948;-67
2022/06/11 12:34:40;;;;;;;;;;;24.40;32.40;;;;;;5074439;28;20020;-67
2022/06/11 12:37:10;;;;;;;;;;;24.70;31.50;;;;;;5076924;28;19929;-68
2022/06/11 12:39:48;;;;;;;;;;;24.70;31.90;;;;;;5080145;28;20014;-68
2022/06/11 12:42:20;;;;;;;;;;;24.90;31.40;;;;;;5078959;28;20401;-68
2022/06/11 12:45:07;;;;;;;;;;;25.30;31.80;;;;;;5077650;28;19974;-68
2022/06/11 12:47:42;;;;;;;;;;;25.40;30.30;;;;;;5071068;28;19963;-68
2022/06/11 12:50:16;;;;;;;;;;;24.40;31.30;;;;;;5080432;28;20466;-68
2022/06/11 12:52:47;;;;;;;;;;;24.10;32.90;;;;;;5071952;28;20026;-68
2022/06/11 12:55:36;;;;;;;;;;;24.40;32.90;;;;;;5073698;28;19924;-67
2022/06/11 12:58:04;;;;;;;;;;;24.60;33.00;;;;;;5075338;28;19935;-67
2022/06/11 13:00:44;;;;;;;;;;;24.80;32.60;;;;;;5080198;28;19924;-67
2022/06/11 13:03:24;;;;;;;;;;;25.00;31.90;;;;;;5072369;28;19959;-69
2022/06/11 13:06:11;;;;;;;;;;;25.00;32.20;;;;;;5072787;28;20043;-68
2022/06/11 13:08:53;;;;;;;;;;;24.80;32.60;;;;;;5070980;28;19967;-68
2022/06/11 13:11:23;;;;;;;;;;;24.60;31.80;;;;;;5077626;28;19924;-68
2022/06/11 13:13:56;;;;;;;;;;;24.60;32.50;;;;;;5076101;28;19928;-67
2022/06/11 13:16:29;;;;;;;;;;;24.50;32.00;;;;;;5075083;28;20022;-66
2022/06/11 13:19:14;;;;;;;;;;;24.50;32.90;;;;;;5077290;28;20034;-66
2022/06/11 13:21:47;;;;;;;;;;;24.70;33.30;;;;;;5086032;28;19928;-66
2022/06/11 13:24:19;;;;;;;;;;;24.60;32.50;;;;;;5077776;28;19955;-68
2022/06/11 13:26:53;;;;;;;;;;;24.20;32.30;;;;;;5082058;28;19955;-67
2022/06/11 13:29:32;;;;;;;;;;;24.10;33.40;;;;;;5070737;28;19925;-67
2022/06/11 13:32:02;;;;;;;;;;;24.40;33.70;;;;;;5071672;28;20043;-67
2022/06/11 13:34:32;;;;;;;;;;;24.50;31.70;;;;;;5075530;28;19963;-67
2022/06/11 13:37:10;;;;;;;;;;;24.50;31.20;;;;;;5079048;28;19924;-67
2022/06/11 13:39:44;;;;;;;;;;;24.50;32.30;;;;;;5073548;28;20358;-67
2022/06/11 13:42:15;;;;;;;;;;;24.80;32.30;;;;;;5077087;28;19933;-67
2022/06/11 13:45:04;;;;;;;;;;;24.80;31.60;;;;;;5078823;28;19929;-66
2022/06/11 13:47:37;;;;;;;;;;;24.70;31.40;;;;;;5070057;28;20023;-66
2022/06/11 13:50:11;;;;;;;;;;;24.80;32.10;;;;;;5073105;28;19952;-67
2022/06/11 13:55:29;;;;;;;;;;;24.50;31.80;;;;;;5090409;28;20435;-67
2022/06/11 13:58:07;;;;;;;;;;;24.60;32.20;;;;;;5085031;28;19969;-67
2022/06/11 14:00:43;;;;;;;;;;;24.70;32.00;;;;;;5084585;28;19956;-68
2022/06/11 14:03:22;;;;;;;;;;;25.10;32.00;;;;;;5076024;28;19967;-67
2022/06/11 14:05:51;;;;;;;;;;;25.40;30.40;;;;;;5084363;28;19978;-68
2022/06/11 14:08:20;;;;;;;;;;;25.00;29.10;;;;;;5090233;28;19963;-68
2022/06/11 14:10:48;;;;;;;;;;;24.90;30.60;;;;;;5084531;28;19959;-68
2022/06/11 14:13:34;;;;;;;;;;;25.30;30.70;;;;;;5083997;28;19964;-68
2022/06/11 14:16:16;;;;;;;;;;;25.30;30.30;;;;;;5075527;28;20021;-67
2022/06/11 14:18:44;;;;;;;;;;;25.20;30.50;;;;;;5078363;28;19924;-68
2022/06/11 14:21:30;;;;;;;;;;;25.50;29.70;;;;;;5073566;28;20379;-68
2022/06/11 14:23:56;;;;;;;;;;;25.20;29.80;;;;;;5078286;28;20021;-67
2022/06/11 14:26:42;;;;;;;;;;;24.60;31.60;;;;;;5079635;28;19940;-68
2022/06/11 14:29:16;;;;;;;;;;;24.50;33.30;;;;;;5086370;28;19930;-68
2022/06/11 14:31:51;;;;;;;;;;;24.60;32.50;;;;;;5077214;28;19986;-69
2022/06/11 14:34:21;;;;;;;;;;;24.40;31.10;;;;;;5084868;28;19978;-68
2022/06/11 14:37:02;;;;;;;;;;;24.10;32.80;;;;;;5077421;28;20356;-67